Portada
METAR-TAF:

METAR-TAF

Aeropuertos :

Honiara, Guadalcanal, Islas Salomón

Aeropuerto Internacional de Honiara

latitud: 09-25S, longitud: 160-03E, altitud: 8 m

Observación

El informe se hizo hace 24 minutos, a las 15:00 UTC
Viento 4 kt del sur-suroeste
Temperatura 25°C
Humedad 83%
Presión 1007 hPa
Visibilidad 10 km o más
Escasas nubes a una altura de 1500 ft

METAR: AGGH 201500Z 20004KT 9999 FEW015 25/22 Q1007

Hora: 02:24 (15:24 UTC)

Pronóstico

El informe se hizo hace 4 horas y 4 minutos, a las 11:20 UTC
Pronóstico válido del 20 a las 12 UTC al 21 a las 12 UTC
Viento 5 kt del sur
Visibilidad: 1008 m
Escasas nubes a una altura de 1600 ft

TAF: AGGH 201120Z 2012/2112 18005KT 9999 FEW016 T 25 24 23 25 Q 1008 1006 1005 1008

Observaciones y pronósticos meteorológicos de más de 4000 aeropuertos (mensajes METAR y TAF).

Los puntos amarillos y rojos representan las estaciones disponibles.

Ponga el ratón en el punto deseado para ver el nombre de la estación.

Haga clic para ver las observaciones y los pronósticos meteorológicos.

Para cambiar el mapa : haga clic en los botones verdes con una cruz de color negro para hacer un zoom, en el botón verde con un guión para alejar o en las flechas verdes para mapas adyacentes.


METAR-TAF: